createdAt,value
2023-04-18T19:40:36.253Z,14.10
2023-04-18T19:42:38.710Z,14.20
2023-04-18T19:44:40.894Z,14.10
2023-04-18T19:46:42.929Z,14.10
2023-04-18T19:48:45.053Z,14.10
2023-04-18T19:50:47.112Z,14.10
2023-04-18T19:52:51.356Z,14.10
2023-04-18T19:54:53.608Z,14.10
2023-04-18T19:56:59.848Z,14.10
2023-04-18T19:59:02.430Z,14.10
2023-04-18T20:01:06.021Z,14.00
2023-04-18T20:03:08.415Z,13.90
2023-04-18T20:05:11.365Z,13.90
2023-04-18T20:07:13.588Z,13.90
2023-04-18T20:09:16.806Z,13.80
2023-04-18T20:11:19.051Z,13.90
2023-04-18T20:13:22.398Z,13.80
2023-04-18T20:15:30.602Z,13.80
2023-04-18T20:17:34.908Z,13.80
2023-04-18T20:19:37.123Z,13.80
2023-04-18T20:21:39.332Z,13.90
2023-04-18T20:23:45.220Z,13.90
2023-04-18T20:25:47.316Z,13.90
2023-04-18T20:27:49.339Z,13.90
2023-04-18T20:29:54.914Z,13.90
2023-04-18T20:31:59.008Z,13.90
2023-04-18T20:34:04.422Z,13.80
2023-04-18T20:36:07.705Z,13.80
2023-04-18T20:38:11.088Z,13.80
2023-04-18T20:40:13.185Z,13.80
2023-04-18T20:42:15.869Z,13.70
2023-04-18T20:44:22.200Z,13.70
2023-04-18T20:46:25.969Z,13.70
2023-04-18T20:48:28.037Z,13.70
2023-04-18T20:50:30.612Z,13.70
2023-04-18T20:52:32.720Z,13.70
2023-04-18T20:54:35.496Z,13.70
2023-04-18T20:56:37.599Z,13.70
2023-04-18T20:58:39.611Z,13.80
2023-04-18T21:00:43.126Z,13.80
2023-04-18T21:02:49.621Z,13.70
2023-04-18T21:04:52.170Z,13.80
2023-04-18T21:06:54.681Z,13.80
2023-04-18T21:08:56.636Z,13.80
2023-04-18T21:10:58.812Z,13.70
2023-04-18T21:13:01.037Z,13.80
2023-04-18T21:15:06.612Z,13.80
2023-04-18T21:17:10.425Z,13.80
2023-04-18T21:19:13.872Z,13.80
2023-04-18T21:21:15.865Z,13.80
2023-04-18T21:23:18.005Z,13.70
2023-04-18T21:25:21.295Z,13.80
2023-04-18T21:27:23.477Z,13.70
2023-04-18T21:29:26.761Z,13.70
2023-04-18T21:31:31.089Z,13.70
2023-04-18T21:33:39.057Z,13.70
2023-04-18T21:35:42.362Z,13.70
2023-04-18T21:37:44.370Z,13.70
2023-04-18T21:39:46.514Z,13.80
2023-04-18T21:41:48.721Z,13.80
2023-04-18T21:43:50.824Z,13.80
2023-04-18T21:45:52.939Z,13.80
2023-04-18T21:47:55.079Z,13.80
2023-04-18T21:49:57.569Z,13.70
2023-04-18T21:52:01.180Z,13.60
2023-04-18T21:54:03.654Z,13.70
2023-04-18T21:56:06.419Z,13.60
2023-04-18T21:58:08.418Z,13.60
2023-04-18T22:00:11.347Z,13.60
2023-04-18T22:02:13.304Z,13.50
2023-04-18T22:04:16.014Z,13.50
2023-04-18T22:06:18.378Z,13.50
2023-04-18T22:08:22.903Z,13.40
2023-04-18T22:10:25.104Z,13.40
2023-04-18T22:12:27.051Z,13.40
2023-04-18T22:14:29.098Z,13.30
2023-04-18T22:16:31.155Z,13.30
2023-04-18T22:18:33.981Z,13.40
2023-04-18T22:20:37.526Z,13.30
2023-04-18T22:22:39.580Z,13.30
2023-04-18T22:24:43.977Z,13.30
2023-04-18T22:26:47.126Z,13.30
2023-04-18T22:28:49.120Z,13.30
2023-04-18T22:30:51.151Z,13.30
2023-04-18T22:32:53.241Z,13.20
2023-04-18T22:34:55.404Z,13.20
2023-04-18T22:36:57.475Z,13.10
2023-04-18T22:38:59.698Z,13.10
2023-04-18T22:41:03.088Z,13.10
2023-04-18T22:43:05.310Z,13.20
2023-04-18T22:45:08.145Z,13.20
2023-04-18T22:47:10.174Z,13.20
2023-04-18T22:49:12.217Z,13.20
2023-04-18T22:51:14.828Z,13.10
2023-04-18T22:53:17.031Z,13.10
2023-04-18T22:55:19.922Z,13.20
2023-04-18T22:57:23.406Z,13.10
2023-04-18T22:59:25.404Z,13.10
2023-04-18T23:01:27.471Z,13.10
2023-04-18T23:03:32.020Z,13.20
2023-04-18T23:05:34.366Z,13.10
2023-04-18T23:07:36.550Z,13.10
2023-04-18T23:09:38.501Z,13.10
2023-04-18T23:11:43.782Z,13.10
2023-04-18T23:13:47.135Z,13.10
2023-04-18T23:15:49.278Z,13.10
2023-04-18T23:17:52.198Z,13.00
2023-04-18T23:19:57.287Z,13.00
2023-04-18T23:21:59.900Z,13.00
2023-04-18T23:24:01.921Z,13.00
2023-04-18T23:26:11.087Z,12.90
2023-04-18T23:28:13.758Z,12.90
2023-04-18T23:30:17.451Z,12.80
2023-04-18T23:32:19.436Z,12.90
2023-04-18T23:34:21.673Z,12.90
2023-04-18T23:36:23.919Z,12.90
2023-04-18T23:38:26.910Z,12.90
2023-04-18T23:40:29.004Z,12.90
2023-04-18T23:42:34.810Z,12.90
2023-04-18T23:44:39.187Z,12.80
2023-04-18T23:46:42.525Z,12.80
2023-04-18T23:48:44.490Z,12.70
2023-04-18T23:50:47.277Z,12.70
2023-04-18T23:52:49.312Z,12.70
2023-04-18T23:54:51.684Z,12.70
2023-04-18T23:56:53.659Z,12.60
2023-04-18T23:58:55.799Z,12.60
